sensor_id;sensor_type;location;lat;lon;timestamp;P1;durP1;ratioP1;P2;durP2;ratioP2
18661;SDS011;61528;49.456;11.098;2024-03-23T00:55:30;6.90;;;5.57;;
18661;SDS011;61528;49.456;11.098;2024-03-23T00:57:56;6.13;;;5.23;;
18661;SDS011;61528;49.456;11.098;2024-03-23T01:00:22;8.20;;;6.00;;
18661;SDS011;61528;49.456;11.098;2024-03-23T01:02:49;6.20;;;5.60;;
18661;SDS011;61528;49.456;11.098;2024-03-23T01:05:15;6.87;;;5.80;;
18661;SDS011;61528;49.456;11.098;2024-03-23T01:07:41;7.70;;;5.60;;
18661;SDS011;61528;49.456;11.098;2024-03-23T01:10:07;6.60;;;5.53;;
18661;SDS011;61528;49.456;11.098;2024-03-23T01:12:34;6.30;;;5.70;;
18661;SDS011;61528;49.456;11.098;2024-03-23T01:15:00;6.67;;;5.43;;
18661;SDS011;61528;49.456;11.098;2024-03-23T01:17:26;7.13;;;5.53;;
18661;SDS011;61528;49.456;11.098;2024-03-23T01:19:52;7.37;;;5.47;;
18661;SDS011;61528;49.456;11.098;2024-03-23T01:22:19;7.00;;;5.70;;
18661;SDS011;61528;49.456;11.098;2024-03-23T01:24:45;6.77;;;5.80;;
18661;SDS011;61528;49.456;11.098;2024-03-23T01:27:11;7.67;;;5.90;;
18661;SDS011;61528;49.456;11.098;2024-03-23T01:29:38;6.20;;;5.57;;
18661;SDS011;61528;49.456;11.098;2024-03-23T01:32:04;7.03;;;5.40;;
18661;SDS011;61528;49.456;11.098;2024-03-23T01:34:31;6.30;;;5.47;;
18661;SDS011;61528;49.456;11.098;2024-03-23T01:36:57;6.00;;;5.40;;
18661;SDS011;61528;49.456;11.098;2024-03-23T01:39:23;7.73;;;5.53;;
18661;SDS011;61528;49.456;11.098;2024-03-23T01:41:50;7.50;;;5.60;;
18661;SDS011;61528;49.456;11.098;2024-03-23T01:44:16;7.97;;;6.13;;
18661;SDS011;61528;49.456;11.098;2024-03-23T01:46:42;6.00;;;5.43;;
18661;SDS011;61528;49.456;11.098;2024-03-23T01:49:09;7.80;;;5.47;;
18661;SDS011;61528;49.456;11.098;2024-03-23T01:51:36;6.73;;;5.47;;
18661;SDS011;61528;49.456;11.098;2024-03-23T01:54:03;9.07;;;5.30;;
18661;SDS011;61528;49.456;11.098;2024-03-23T01:56:31;7.50;;;5.83;;
18661;SDS011;61528;49.456;11.098;2024-03-23T01:59:09;7.90;;;5.17;;
18661;SDS011;61528;49.456;11.098;2024-03-23T02:01:35;5.63;;;4.90;;
18661;SDS011;61528;49.456;11.098;2024-03-23T02:04:01;7.57;;;4.70;;
18661;SDS011;61528;49.456;11.098;2024-03-23T02:06:28;5.70;;;4.93;;
18661;SDS011;61528;49.456;11.098;2024-03-23T02:08:57;5.80;;;4.70;;
18661;SDS011;61528;49.456;11.098;2024-03-23T02:11:23;6.47;;;4.83;;
18661;SDS011;61528;49.456;11.098;2024-03-23T02:13:49;5.37;;;4.67;;
18661;SDS011;61528;49.456;11.098;2024-03-23T02:16:16;7.93;;;5.20;;
18661;SDS011;61528;49.456;11.098;2024-03-23T02:18:42;6.03;;;5.00;;
18661;SDS011;61528;49.456;11.098;2024-03-23T02:21:08;10.47;;;5.03;;
18661;SDS011;61528;49.456;11.098;2024-03-23T02:23:34;6.97;;;4.70;;
18661;SDS011;61528;49.456;11.098;2024-03-23T02:26:00;5.30;;;4.30;;
18661;SDS011;61528;49.456;11.098;2024-03-23T02:28:27;5.60;;;4.63;;
18661;SDS011;61528;49.456;11.098;2024-03-23T02:30:53;5.80;;;4.50;;
18661;SDS011;61528;49.456;11.098;2024-03-23T02:33:19;5.97;;;4.70;;
18661;SDS011;61528;49.456;11.098;2024-03-23T02:35:46;5.50;;;4.93;;
18661;SDS011;61528;49.456;11.098;2024-03-23T02:38:12;6.00;;;4.70;;
18661;SDS011;61528;49.456;11.098;2024-03-23T02:40:38;5.40;;;4.90;;
18661;SDS011;61528;49.456;11.098;2024-03-23T02:43:04;6.43;;;4.93;;
18661;SDS011;61528;49.456;11.098;2024-03-23T02:45:30;5.13;;;4.50;;
18661;SDS011;61528;49.456;11.098;2024-03-23T02:47:57;8.70;;;4.97;;
18661;SDS011;61528;49.456;11.098;2024-03-23T02:50:23;4.90;;;4.50;;
18661;SDS011;61528;49.456;11.098;2024-03-23T02:52:49;6.07;;;4.50;;
18661;SDS011;61528;49.456;11.098;2024-03-23T02:55:16;6.00;;;4.60;;
18661;SDS011;61528;49.456;11.098;2024-03-23T02:57:42;5.50;;;4.80;;
18661;SDS011;61528;49.456;11.098;2024-03-23T03:00:08;5.30;;;4.80;;
18661;SDS011;61528;49.456;11.098;2024-03-23T03:02:36;8.10;;;5.37;;
18661;SDS011;61528;49.456;11.098;2024-03-23T03:05:03;6.47;;;5.13;;
18661;SDS011;61528;49.456;11.098;2024-03-23T03:07:30;6.27;;;5.07;;
18661;SDS011;61528;49.456;11.098;2024-03-23T03:09:57;5.63;;;4.87;;
18661;SDS011;61528;49.456;11.098;2024-03-23T03:12:23;7.47;;;5.10;;
18661;SDS011;61528;49.456;11.098;2024-03-23T03:14:49;7.03;;;5.10;;
18661;SDS011;61528;49.456;11.098;2024-03-23T03:17:15;6.17;;;4.67;;
18661;SDS011;61528;49.456;11.098;2024-03-23T03:19:42;6.00;;;5.20;;
18661;SDS011;61528;49.456;11.098;2024-03-23T03:22:08;5.87;;;5.10;;
18661;SDS011;61528;49.456;11.098;2024-03-23T03:24:34;6.30;;;5.50;;
18661;SDS011;61528;49.456;11.098;2024-03-23T03:27:00;6.00;;;5.10;;
18661;SDS011;61528;49.456;11.098;2024-03-23T03:29:28;6.70;;;5.00;;
18661;SDS011;61528;49.456;11.098;2024-03-23T03:32:01;6.67;;;5.43;;
18661;SDS011;61528;49.456;11.098;2024-03-23T03:34:27;6.67;;;5.37;;
18661;SDS011;61528;49.456;11.098;2024-03-23T03:36:54;6.33;;;5.10;;
18661;SDS011;61528;49.456;11.098;2024-03-23T03:39:20;5.73;;;5.23;;
18661;SDS011;61528;49.456;11.098;2024-03-23T03:41:47;6.47;;;4.83;;
18661;SDS011;61528;49.456;11.098;2024-03-23T03:44:14;7.53;;;5.50;;
18661;SDS011;61528;49.456;11.098;2024-03-23T03:46:40;5.93;;;5.30;;
18661;SDS011;61528;49.456;11.098;2024-03-23T03:49:06;9.27;;;5.37;;
18661;SDS011;61528;49.456;11.098;2024-03-23T03:51:32;6.40;;;5.70;;
18661;SDS011;61528;49.456;11.098;2024-03-23T03:53:58;5.70;;;5.07;;
18661;SDS011;61528;49.456;11.098;2024-03-23T03:56:25;6.43;;;5.27;;
18661;SDS011;61528;49.456;11.098;2024-03-23T03:58:51;6.33;;;5.70;;
18661;SDS011;61528;49.456;11.098;2024-03-23T04:01:17;7.67;;;5.90;;
18661;SDS011;61528;49.456;11.098;2024-03-23T04:03:44;6.80;;;5.80;;
18661;SDS011;61528;49.456;11.098;2024-03-23T04:06:10;6.93;;;5.57;;
18661;SDS011;61528;49.456;11.098;2024-03-23T04:08:36;7.13;;;5.63;;
18661;SDS011;61528;49.456;11.098;2024-03-23T04:11:02;9.13;;;5.60;;
18661;SDS011;61528;49.456;11.098;2024-03-23T04:13:28;8.03;;;6.37;;
18661;SDS011;61528;49.456;11.098;2024-03-23T04:15:55;7.60;;;6.20;;
18661;SDS011;61528;49.456;11.098;2024-03-23T04:18:21;8.57;;;6.50;;
18661;SDS011;61528;49.456;11.098;2024-03-23T04:20:50;6.90;;;6.17;;
18661;SDS011;61528;49.456;11.098;2024-03-23T04:23:17;9.13;;;7.07;;
18661;SDS011;61528;49.456;11.098;2024-03-23T04:25:43;8.97;;;7.13;;
18661;SDS011;61528;49.456;11.098;2024-03-23T04:28:09;9.07;;;7.27;;
18661;SDS011;61528;49.456;11.098;2024-03-23T04:30:36;8.47;;;6.97;;
18661;SDS011;61528;49.456;11.098;2024-03-23T04:33:02;10.50;;;8.17;;
18661;SDS011;61528;49.456;11.098;2024-03-23T04:35:28;16.20;;;11.07;;
18661;SDS011;61528;49.456;11.098;2024-03-23T04:37:55;9.03;;;7.03;;
18661;SDS011;61528;49.456;11.098;2024-03-23T04:40:24;8.30;;;6.50;;
18661;SDS011;61528;49.456;11.098;2024-03-23T04:42:50;9.83;;;7.70;;
18661;SDS011;61528;49.456;11.098;2024-03-23T04:45:16;8.17;;;6.97;;
18661;SDS011;61528;49.456;11.098;2024-03-23T04:47:42;12.90;;;6.70;;
18661;SDS011;61528;49.456;11.098;2024-03-23T04:50:09;7.47;;;6.23;;
18661;SDS011;61528;49.456;11.098;2024-03-23T04:52:38;7.90;;;7.10;;
18661;SDS011;61528;49.456;11.098;2024-03-23T04:55:04;7.57;;;6.60;;
18661;SDS011;61528;49.456;11.098;2024-03-23T04:57:30;8.43;;;6.50;;
18661;SDS011;61528;49.456;11.098;2024-03-23T04:59:57;7.53;;;6.73;;
18661;SDS011;61528;49.456;11.098;2024-03-23T05:02:23;10.60;;;6.83;;
18661;SDS011;61528;49.456;11.098;2024-03-23T05:04:50;7.37;;;6.33;;
18661;SDS011;61528;49.456;11.098;2024-03-23T05:07:16;7.67;;;6.37;;
18661;SDS011;61528;49.456;11.098;2024-03-23T05:09:43;8.70;;;6.40;;
18661;SDS011;61528;49.456;11.098;2024-03-23T05:12:09;7.23;;;6.47;;
18661;SDS011;61528;49.456;11.098;2024-03-23T05:14:35;8.47;;;6.40;;
18661;SDS011;61528;49.456;11.098;2024-03-23T05:17:02;6.63;;;5.97;;
18661;SDS011;61528;49.456;11.098;2024-03-23T05:19:28;7.10;;;6.30;;
18661;SDS011;61528;49.456;11.098;2024-03-23T05:21:54;9.10;;;6.50;;
18661;SDS011;61528;49.456;11.098;2024-03-23T05:24:21;10.37;;;6.53;;
18661;SDS011;61528;49.456;11.098;2024-03-23T05:26:47;6.80;;;6.10;;
18661;SDS011;61528;49.456;11.098;2024-03-23T05:29:13;8.23;;;6.27;;
18661;SDS011;61528;49.456;11.098;2024-03-23T05:31:39;7.70;;;5.77;;
18661;SDS011;61528;49.456;11.098;2024-03-23T05:34:06;7.43;;;6.57;;
18661;SDS011;61528;49.456;11.098;2024-03-23T05:36:33;7.23;;;5.83;;
18661;SDS011;61528;49.456;11.098;2024-03-23T05:38:59;6.20;;;5.60;;
18661;SDS011;61528;49.456;11.098;2024-03-23T05:41:25;6.70;;;6.00;;
18661;SDS011;61528;49.456;11.098;2024-03-23T05:43:51;6.80;;;6.00;;
18661;SDS011;61528;49.456;11.098;2024-03-23T05:46:17;7.07;;;5.53;;
18661;SDS011;61528;49.456;11.098;2024-03-23T05:48:43;6.43;;;5.57;;
18661;SDS011;61528;49.456;11.098;2024-03-23T05:51:09;8.45;;;6.30;;
18661;SDS011;61528;49.456;11.098;2024-03-23T05:53:37;6.97;;;5.43;;
18661;SDS011;61528;49.456;11.098;2024-03-23T05:56:04;6.23;;;5.17;;
18661;SDS011;61528;49.456;11.098;2024-03-23T05:58:30;7.23;;;5.50;;
18661;SDS011;61528;49.456;11.098;2024-03-23T06:00:57;5.80;;;5.10;;
18661;SDS011;61528;49.456;11.098;2024-03-23T06:03:24;5.60;;;4.83;;
18661;SDS011;61528;49.456;11.098;2024-03-23T06:05:51;5.63;;;4.80;;
18661;SDS011;61528;49.456;11.098;2024-03-23T06:08:18;7.70;;;4.83;;
18661;SDS011;61528;49.456;11.098;2024-03-23T06:10:45;8.37;;;5.20;;
18661;SDS011;61528;49.456;11.098;2024-03-23T06:13:11;6.97;;;5.20;;
18661;SDS011;61528;49.456;11.098;2024-03-23T06:15:37;5.67;;;4.97;;
18661;SDS011;61528;49.456;11.098;2024-03-23T06:18:04;6.70;;;4.80;;
18661;SDS011;61528;49.456;11.098;2024-03-23T06:20:30;6.20;;;4.60;;
18661;SDS011;61528;49.456;11.098;2024-03-23T06:22:57;6.53;;;5.20;;
18661;SDS011;61528;49.456;11.098;2024-03-23T06:25:23;7.37;;;5.60;;
18661;SDS011;61528;49.456;11.098;2024-03-23T06:27:49;8.27;;;5.57;;
18661;SDS011;61528;49.456;11.098;2024-03-23T06:30:15;7.80;;;5.90;;
18661;SDS011;61528;49.456;11.098;2024-03-23T06:32:41;7.57;;;5.97;;
18661;SDS011;61528;49.456;11.098;2024-03-23T06:35:07;7.10;;;6.23;;
18661;SDS011;61528;49.456;11.098;2024-03-23T06:37:37;8.10;;;6.97;;
18661;SDS011;61528;49.456;11.098;2024-03-23T06:40:06;9.57;;;7.40;;
18661;SDS011;61528;49.456;11.098;2024-03-23T06:42:38;9.40;;;7.10;;
18661;SDS011;61528;49.456;11.098;2024-03-23T06:45:05;10.33;;;7.77;;
18661;SDS011;61528;49.456;11.098;2024-03-23T06:47:31;10.77;;;8.07;;
18661;SDS011;61528;49.456;11.098;2024-03-23T06:49:58;9.50;;;8.10;;
18661;SDS011;61528;49.456;11.098;2024-03-23T06:52:27;9.73;;;8.13;;
18661;SDS011;61528;49.456;11.098;2024-03-23T06:54:53;11.57;;;8.17;;
18661;SDS011;61528;49.456;11.098;2024-03-23T06:57:19;9.43;;;8.17;;
18661;SDS011;61528;49.456;11.098;2024-03-23T06:59:45;11.97;;;7.83;;
18661;SDS011;61528;49.456;11.098;2024-03-23T07:02:11;10.03;;;7.67;;
18661;SDS011;61528;49.456;11.098;2024-03-23T07:04:38;10.00;;;7.43;;
18661;SDS011;61528;49.456;11.098;2024-03-23T07:07:07;8.83;;;6.73;;
18661;SDS011;61528;49.456;11.098;2024-03-23T07:09:33;8.23;;;7.10;;
18661;SDS011;61528;49.456;11.098;2024-03-23T07:11:59;8.40;;;6.57;;
18661;SDS011;61528;49.456;11.098;2024-03-23T07:14:25;8.43;;;6.80;;
18661;SDS011;61528;49.456;11.098;2024-03-23T07:16:51;7.27;;;6.57;;
18661;SDS011;61528;49.456;11.098;2024-03-23T07:19:18;9.00;;;6.70;;
18661;SDS011;61528;49.456;11.098;2024-03-23T07:21:44;7.23;;;6.27;;
18661;SDS011;61528;49.456;11.098;2024-03-23T07:24:10;7.93;;;6.17;;
18661;SDS011;61528;49.456;11.098;2024-03-23T07:26:37;8.67;;;5.57;;
18661;SDS011;61528;49.456;11.098;2024-03-23T07:29:04;8.57;;;5.97;;
18661;SDS011;61528;49.456;11.098;2024-03-23T07:31:30;6.47;;;5.77;;
18661;SDS011;61528;49.456;11.098;2024-03-23T07:33:56;7.57;;;5.53;;
18661;SDS011;61528;49.456;11.098;2024-03-23T07:36:22;6.53;;;5.60;;
18661;SDS011;61528;49.456;11.098;2024-03-23T07:38:49;6.50;;;4.97;;
18661;SDS011;61528;49.456;11.098;2024-03-23T07:41:16;8.03;;;5.30;;
18661;SDS011;61528;49.456;11.098;2024-03-23T07:43:42;5.70;;;5.10;;
18661;SDS011;61528;49.456;11.098;2024-03-23T07:46:09;6.77;;;5.10;;
18661;SDS011;61528;49.456;11.098;2024-03-23T07:48:35;7.10;;;5.50;;
18661;SDS011;61528;49.456;11.098;2024-03-23T07:51:05;6.20;;;5.13;;
18661;SDS011;61528;49.456;11.098;2024-03-23T07:53:31;7.13;;;5.07;;
18661;SDS011;61528;49.456;11.098;2024-03-23T07:56:00;6.30;;;4.93;;
18661;SDS011;61528;49.456;11.098;2024-03-23T07:58:26;8.33;;;4.93;;
18661;SDS011;61528;49.456;11.098;2024-03-23T08:00:54;6.87;;;5.40;;
18661;SDS011;61528;49.456;11.098;2024-03-23T08:03:20;5.43;;;4.73;;
18661;SDS011;61528;49.456;11.098;2024-03-23T08:05:46;7.23;;;5.07;;
18661;SDS011;61528;49.456;11.098;2024-03-23T08:08:12;7.70;;;5.73;;
18661;SDS011;61528;49.456;11.098;2024-03-23T08:10:51;7.03;;;5.30;;
18661;SDS011;61528;49.456;11.098;2024-03-23T08:13:18;7.40;;;5.37;;
18661;SDS011;61528;49.456;11.098;2024-03-23T08:15:45;7.23;;;5.63;;
18661;SDS011;61528;49.456;11.098;2024-03-23T08:18:12;6.07;;;4.90;;
18661;SDS011;61528;49.456;11.098;2024-03-23T08:20:41;6.47;;;5.60;;
18661;SDS011;61528;49.456;11.098;2024-03-23T08:23:07;6.37;;;5.57;;
18661;SDS011;61528;49.456;11.098;2024-03-23T08:25:34;7.67;;;5.50;;
18661;SDS011;61528;49.456;11.098;2024-03-23T08:28:01;6.67;;;4.63;;
18661;SDS011;61528;49.456;11.098;2024-03-23T08:30:27;5.47;;;4.43;;
18661;SDS011;61528;49.456;11.098;2024-03-23T08:32:54;5.77;;;4.20;;
18661;SDS011;61528;49.456;11.098;2024-03-23T08:35:21;5.43;;;3.77;;
18661;SDS011;61528;49.456;11.098;2024-03-23T08:37:47;21.33;;;14.70;;
18661;SDS011;61528;49.456;11.098;2024-03-23T08:40:13;2.87;;;2.60;;
18661;SDS011;61528;49.456;11.098;2024-03-23T08:42:39;2.87;;;2.53;;
18661;SDS011;61528;49.456;11.098;2024-03-23T08:45:06;2.37;;;1.90;;
18661;SDS011;61528;49.456;11.098;2024-03-23T08:47:34;4.03;;;3.10;;
18661;SDS011;61528;49.456;11.098;2024-03-23T08:50:01;2.10;;;1.43;;
18661;SDS011;61528;49.456;11.098;2024-03-23T08:52:27;1.50;;;1.40;;
18661;SDS011;61528;49.456;11.098;2024-03-23T08:54:54;2.07;;;1.87;;
18661;SDS011;61528;49.456;11.098;2024-03-23T08:57:22;1.80;;;1.70;;
18661;SDS011;61528;49.456;11.098;2024-03-23T08:59:48;4.43;;;1.93;;
18661;SDS011;61528;49.456;11.098;2024-03-23T09:02:14;1.90;;;1.80;;
18661;SDS011;61528;49.456;11.098;2024-03-23T09:04:40;1.60;;;1.50;;
18661;SDS011;61528;49.456;11.098;2024-03-23T09:07:06;2.30;;;1.40;;
18661;SDS011;61528;49.456;11.098;2024-03-23T09:09:33;2.13;;;1.20;;
18661;SDS011;61528;49.456;11.098;2024-03-23T09:11:59;1.30;;;1.20;;
18661;SDS011;61528;49.456;11.098;2024-03-23T09:14:25;2.00;;;1.13;;
18661;SDS011;61528;49.456;11.098;2024-03-23T09:16:51;1.03;;;1.00;;
18661;SDS011;61528;49.456;11.098;2024-03-23T09:19:18;1.47;;;1.37;;
18661;SDS011;61528;49.456;11.098;2024-03-23T09:21:45;1.43;;;1.20;;
18661;SDS011;61528;49.456;11.098;2024-03-23T09:24:11;1.37;;;1.27;;
18661;SDS011;61528;49.456;11.098;2024-03-23T09:26:37;1.77;;;1.17;;
18661;SDS011;61528;49.456;11.098;2024-03-23T09:29:03;1.70;;;1.60;;
18661;SDS011;61528;49.456;11.098;2024-03-23T09:31:29;0.70;;;0.67;;
18661;SDS011;61528;49.456;11.098;2024-03-23T09:33:57;1.90;;;0.70;;
18661;SDS011;61528;49.456;11.098;2024-03-23T09:36:23;0.90;;;0.90;;
18661;SDS011;61528;49.456;11.098;2024-03-23T09:38:49;1.10;;;0.67;;
18661;SDS011;61528;49.456;11.098;2024-03-23T09:41:16;0.73;;;0.70;;
18661;SDS011;61528;49.456;11.098;2024-03-23T09:43:42;0.50;;;0.50;;
18661;SDS011;61528;49.456;11.098;2024-03-23T09:46:08;1.03;;;0.50;;
18661;SDS011;61528;49.456;11.098;2024-03-23T09:48:35;0.30;;;0.30;;
18661;SDS011;61528;49.456;11.098;2024-03-23T09:51:02;0.30;;;0.30;;
18661;SDS011;61528;49.456;11.098;2024-03-23T09:53:28;0.30;;;0.30;;
18661;SDS011;61528;49.456;11.098;2024-03-23T09:55:54;0.40;;;0.40;;
18661;SDS011;61528;49.456;11.098;2024-03-23T09:58:23;0.40;;;0.40;;
18661;SDS011;61528;49.456;11.098;2024-03-23T10:00:49;0.40;;;0.40;;
18661;SDS011;61528;49.456;11.098;2024-03-23T10:03:16;0.30;;;0.30;;
18661;SDS011;61528;49.456;11.098;2024-03-23T10:05:42;0.30;;;0.30;;
18661;SDS011;61528;49.456;11.098;2024-03-23T10:10:41;0.53;;;0.43;;
18661;SDS011;61528;49.456;11.098;2024-03-23T10:13:07;0.40;;;0.30;;
18661;SDS011;61528;49.456;11.098;2024-03-23T10:15:34;1.90;;;0.80;;
18661;SDS011;61528;49.456;11.098;2024-03-23T10:18:17;0.30;;;0.30;;
18661;SDS011;61528;49.456;11.098;2024-03-23T10:20:47;0.67;;;0.60;;
18661;SDS011;61528;49.456;11.098;2024-03-23T10:23:16;0.63;;;0.63;;
18661;SDS011;61528;49.456;11.098;2024-03-23T10:25:43;0.60;;;0.47;;
18661;SDS011;61528;49.456;11.098;2024-03-23T10:28:09;0.40;;;0.40;;
18661;SDS011;61528;49.456;11.098;2024-03-23T10:30:36;1.00;;;0.80;;
18661;SDS011;61528;49.456;11.098;2024-03-23T10:33:09;0.87;;;0.77;;
18661;SDS011;61528;49.456;11.098;2024-03-23T10:35:36;0.93;;;0.60;;
18661;SDS011;61528;49.456;11.098;2024-03-23T10:38:06;1.60;;;1.03;;
18661;SDS011;61528;49.456;11.098;2024-03-23T10:40:36;1.50;;;1.40;;
18661;SDS011;61528;49.456;11.098;2024-03-23T10:43:03;1.83;;;0.93;;
18661;SDS011;61528;49.456;11.098;2024-03-23T10:45:30;3.50;;;1.00;;
18661;SDS011;61528;49.456;11.098;2024-03-23T10:47:56;1.10;;;0.90;;
18661;SDS011;61528;49.456;11.098;2024-03-23T10:50:23;1.83;;;1.37;;
18661;SDS011;61528;49.456;11.098;2024-03-23T10:52:49;2.10;;;1.20;;
18661;SDS011;61528;49.456;11.098;2024-03-23T10:55:18;1.17;;;1.00;;
18661;SDS011;61528;49.456;11.098;2024-03-23T10:57:48;1.67;;;1.00;;
18661;SDS011;61528;49.456;11.098;2024-03-23T11:00:16;1.60;;;1.30;;
18661;SDS011;61528;49.456;11.098;2024-03-23T11:02:43;3.40;;;2.37;;
18661;SDS011;61528;49.456;11.098;2024-03-23T11:05:51;2.70;;;1.43;;
18661;SDS011;61528;49.456;11.098;2024-03-23T11:07:59;2.70;;;1.23;;
18661;SDS011;61528;49.456;11.098;2024-03-23T11:12:52;2.23;;;1.23;;
18661;SDS011;61528;49.456;11.098;2024-03-23T11:15:19;2.33;;;1.30;;
18661;SDS011;61528;49.456;11.098;2024-03-23T11:18:04;1.97;;;1.20;;
18661;SDS011;61528;49.456;11.098;2024-03-23T11:20:32;1.80;;;1.30;;
18661;SDS011;61528;49.456;11.098;2024-03-23T11:22:58;3.30;;;2.17;;
18661;SDS011;61528;49.456;11.098;2024-03-23T11:25:26;2.60;;;2.13;;
18661;SDS011;61528;49.456;11.098;2024-03-23T11:27:53;3.83;;;2.27;;
18661;SDS011;61528;49.456;11.098;2024-03-23T11:30:20;3.00;;;1.77;;
18661;SDS011;61528;49.456;11.098;2024-03-23T11:32:54;3.70;;;1.47;;
18661;SDS011;61528;49.456;11.098;2024-03-23T11:35:30;2.03;;;1.70;;
18661;SDS011;61528;49.456;11.098;2024-03-23T11:42:28;3.13;;;1.67;;
18661;SDS011;61528;49.456;11.098;2024-03-23T11:44:54;3.23;;;1.50;;
18661;SDS011;61528;49.456;11.098;2024-03-23T11:47:20;3.77;;;1.70;;
18661;SDS011;61528;49.456;11.098;2024-03-23T11:49:48;3.80;;;2.07;;
18661;SDS011;61528;49.456;11.098;2024-03-23T11:52:14;6.67;;;2.10;;
18661;SDS011;61528;49.456;11.098;2024-03-23T11:54:41;3.20;;;2.10;;
18661;SDS011;61528;49.456;11.098;2024-03-23T11:57:08;2.80;;;1.90;;
18661;SDS011;61528;49.456;11.098;2024-03-23T11:59:39;4.27;;;1.90;;
18661;SDS011;61528;49.456;11.098;2024-03-23T12:02:07;2.70;;;1.93;;
18661;SDS011;61528;49.456;11.098;2024-03-23T12:04:33;4.07;;;2.10;;
18661;SDS011;61528;49.456;11.098;2024-03-23T12:07:16;3.27;;;2.43;;
18661;SDS011;61528;49.456;11.098;2024-03-23T12:09:46;4.03;;;1.97;;
18661;SDS011;61528;49.456;11.098;2024-03-23T12:12:17;2.53;;;1.40;;
18661;SDS011;61528;49.456;11.098;2024-03-23T12:14:43;4.23;;;1.80;;
18661;SDS011;61528;49.456;11.098;2024-03-23T12:17:10;2.83;;;1.80;;
18661;SDS011;61528;49.456;11.098;2024-03-23T12:19:37;2.83;;;1.93;;
18661;SDS011;61528;49.456;11.098;2024-03-23T12:22:04;3.10;;;1.93;;
18661;SDS011;61528;49.456;11.098;2024-03-23T12:24:30;3.93;;;1.87;;
18661;SDS011;61528;49.456;11.098;2024-03-23T12:26:59;1.93;;;1.70;;
18661;SDS011;61528;49.456;11.098;2024-03-23T12:29:27;3.70;;;2.07;;
18661;SDS011;61528;49.456;11.098;2024-03-23T12:31:53;5.20;;;1.90;;
18661;SDS011;61528;49.456;11.098;2024-03-23T12:34:21;3.67;;;1.90;;
18661;SDS011;61528;49.456;11.098;2024-03-23T12:36:47;3.87;;;1.90;;
18661;SDS011;61528;49.456;11.098;2024-03-23T12:39:13;3.50;;;1.93;;
18661;SDS011;61528;49.456;11.098;2024-03-23T12:41:39;4.60;;;1.87;;
18661;SDS011;61528;49.456;11.098;2024-03-23T12:44:05;4.10;;;2.10;;
18661;SDS011;61528;49.456;11.098;2024-03-23T12:46:33;3.03;;;1.93;;
18661;SDS011;61528;49.456;11.098;2024-03-23T12:48:59;3.87;;;1.80;;
18661;SDS011;61528;49.456;11.098;2024-03-23T12:51:26;4.13;;;2.00;;
18661;SDS011;61528;49.456;11.098;2024-03-23T12:53:52;2.97;;;1.90;;
18661;SDS011;61528;49.456;11.098;2024-03-23T12:56:18;2.17;;;1.53;;
18661;SDS011;61528;49.456;11.098;2024-03-23T12:58:45;4.40;;;2.03;;
18661;SDS011;61528;49.456;11.098;2024-03-23T13:01:16;3.60;;;2.20;;
18661;SDS011;61528;49.456;11.098;2024-03-23T13:03:42;4.23;;;1.97;;
18661;SDS011;61528;49.456;11.098;2024-03-23T13:06:10;3.83;;;2.30;;
18661;SDS011;61528;49.456;11.098;2024-03-23T13:08:36;4.17;;;2.20;;
18661;SDS011;61528;49.456;11.098;2024-03-23T13:11:02;3.80;;;2.23;;
18661;SDS011;61528;49.456;11.098;2024-03-23T13:13:28;4.00;;;2.60;;
18661;SDS011;61528;49.456;11.098;2024-03-23T13:15:54;4.33;;;2.60;;
18661;SDS011;61528;49.456;11.098;2024-03-23T13:18:20;3.53;;;2.33;;
18661;SDS011;61528;49.456;11.098;2024-03-23T13:20:46;5.17;;;2.20;;
18661;SDS011;61528;49.456;11.098;2024-03-23T13:23:13;3.33;;;2.00;;
18661;SDS011;61528;49.456;11.098;2024-03-23T13:25:39;3.47;;;2.07;;
18661;SDS011;61528;49.456;11.098;2024-03-23T13:28:05;3.60;;;2.33;;
18661;SDS011;61528;49.456;11.098;2024-03-23T13:30:33;3.57;;;2.30;;
18661;SDS011;61528;49.456;11.098;2024-03-23T13:32:59;4.03;;;2.20;;
18661;SDS011;61528;49.456;11.098;2024-03-23T13:35:25;4.43;;;2.40;;
18661;SDS011;61528;49.456;11.098;2024-03-23T13:37:52;4.60;;;2.50;;
18661;SDS011;61528;49.456;11.098;2024-03-23T13:40:18;3.60;;;2.30;;
18661;SDS011;61528;49.456;11.098;2024-03-23T13:42:45;3.23;;;2.00;;
18661;SDS011;61528;49.456;11.098;2024-03-23T13:45:11;3.73;;;2.03;;
18661;SDS011;61528;49.456;11.098;2024-03-23T13:47:37;3.83;;;2.00;;
18661;SDS011;61528;49.456;11.098;2024-03-23T13:50:04;3.47;;;2.20;;
18661;SDS011;61528;49.456;11.098;2024-03-23T13:52:30;3.57;;;2.00;;
18661;SDS011;61528;49.456;11.098;2024-03-23T13:54:56;4.60;;;2.20;;
18661;SDS011;61528;49.456;11.098;2024-03-23T13:57:23;2.93;;;2.10;;
18661;SDS011;61528;49.456;11.098;2024-03-23T13:59:51;3.83;;;1.83;;
18661;SDS011;61528;49.456;11.098;2024-03-23T14:02:17;3.33;;;2.10;;
18661;SDS011;61528;49.456;11.098;2024-03-23T14:04:43;3.57;;;2.10;;
18661;SDS011;61528;49.456;11.098;2024-03-23T14:07:10;3.27;;;2.23;;
18661;SDS011;61528;49.456;11.098;2024-03-23T14:09:36;3.80;;;2.60;;
18661;SDS011;61528;49.456;11.098;2024-03-23T14:12:02;3.90;;;2.03;;
18661;SDS011;61528;49.456;11.098;2024-03-23T14:14:29;4.90;;;2.90;;
18661;SDS011;61528;49.456;11.098;2024-03-23T14:16:55;5.03;;;3.40;;
18661;SDS011;61528;49.456;11.098;2024-03-23T14:19:22;2.90;;;2.30;;
18661;SDS011;61528;49.456;11.098;2024-03-23T14:21:48;3.42;;;2.50;;
18661;SDS011;61528;49.456;11.098;2024-03-23T14:24:14;3.47;;;1.77;;
18661;SDS011;61528;49.456;11.098;2024-03-23T14:26:41;4.00;;;2.15;;
18661;SDS011;61528;49.456;11.098;2024-03-23T14:29:08;3.10;;;1.80;;
18661;SDS011;61528;49.456;11.098;2024-03-23T14:31:34;4.27;;;2.40;;
18661;SDS011;61528;49.456;11.098;2024-03-23T14:34:00;6.80;;;2.73;;
18661;SDS011;61528;49.456;11.098;2024-03-23T14:36:26;5.03;;;2.43;;
18661;SDS011;61528;49.456;11.098;2024-03-23T14:38:53;4.97;;;2.37;;
18661;SDS011;61528;49.456;11.098;2024-03-23T14:41:19;5.10;;;2.27;;
18661;SDS011;61528;49.456;11.098;2024-03-23T14:43:45;5.50;;;3.37;;
18661;SDS011;61528;49.456;11.098;2024-03-23T14:46:14;5.23;;;2.40;;
18661;SDS011;61528;49.456;11.098;2024-03-23T14:48:41;6.33;;;2.27;;
18661;SDS011;61528;49.456;11.098;2024-03-23T14:51:08;5.50;;;2.70;;
18661;SDS011;61528;49.456;11.098;2024-03-23T14:53:37;4.67;;;2.43;;
18661;SDS011;61528;49.456;11.098;2024-03-23T14:56:07;4.97;;;2.13;;
18661;SDS011;61528;49.456;11.098;2024-03-23T14:58:40;4.07;;;2.23;;
18661;SDS011;61528;49.456;11.098;2024-03-23T15:01:07;3.27;;;1.93;;
18661;SDS011;61528;49.456;11.098;2024-03-23T15:03:39;5.27;;;2.23;;
18661;SDS011;61528;49.456;11.098;2024-03-23T15:06:08;5.17;;;2.30;;
18661;SDS011;61528;49.456;11.098;2024-03-23T15:08:35;4.00;;;1.80;;
18661;SDS011;61528;49.456;11.098;2024-03-23T15:11:03;3.40;;;1.70;;
18661;SDS011;61528;49.456;11.098;2024-03-23T15:13:33;6.13;;;2.40;;
18661;SDS011;61528;49.456;11.098;2024-03-23T15:16:00;6.33;;;2.23;;
18661;SDS011;61528;49.456;11.098;2024-03-23T15:18:27;5.27;;;2.70;;
18661;SDS011;61528;49.456;11.098;2024-03-23T15:20:55;5.03;;;3.00;;
18661;SDS011;61528;49.456;11.098;2024-03-23T15:23:22;5.13;;;2.40;;
18661;SDS011;61528;49.456;11.098;2024-03-23T15:25:57;4.73;;;2.43;;
18661;SDS011;61528;49.456;11.098;2024-03-23T15:28:24;4.67;;;2.30;;
18661;SDS011;61528;49.456;11.098;2024-03-23T15:31:06;5.20;;;2.23;;
18661;SDS011;61528;49.456;11.098;2024-03-23T15:33:34;4.43;;;2.50;;
18661;SDS011;61528;49.456;11.098;2024-03-23T15:36:01;2.87;;;2.07;;